Time;durP1;ratioP1;P1;durP2;ratioP2;P2;SDS_P1;SDS_P2;PMS_P1;PMS_P2;Temp;Humidity;BMP_temperature;BMP_pressure;BME280_temperature;BME280_humidity;BME280_pressure;Samples;Min_cycle;Max_cycle;Signal;HPM_P1;HPM_P2
2022/06/16 00:02:19;;;;;;;0.90;0.90;;;;;;;;;;5157891;27;20357;-57
2022/06/16 00:05:12;;;;;;;1.10;1.00;;;;;;;;;;5157787;27;20197;-57
2022/06/16 00:07:58;;;;;;;1.00;0.90;;;;;;;;;;5154080;27;20565;-58
2022/06/16 00:13:49;;;;;;;3.03;0.90;;;;;;;;;;5156853;27;20204;-57
2022/06/16 00:16:37;;;;;;;0.93;0.93;;;;;;;;;;5159513;27;20215;-57
2022/06/16 00:19:24;;;;;;;0.83;0.83;;;;;;;;;;5158310;27;20229;-57
2022/06/16 00:22:12;;;;;;;1.00;0.90;;;;;;;;;;5154751;27;20232;-57
2022/06/16 00:24:59;;;;;;;1.63;1.00;;;;;;;;;;5163026;27;20208;-57
2022/06/16 00:27:46;;;;;;;1.17;1.07;;;;;;;;;;5156224;27;20220;-57
2022/06/16 00:30:33;;;;;;;1.83;1.03;;;;;;;;;;5158366;27;20207;-58
2022/06/16 00:33:20;;;;;;;0.80;0.80;;;;;;;;;;5160697;27;20741;-56
2022/06/16 00:36:08;;;;;;;1.80;0.90;;;;;;;;;;5159975;27;20224;-57
2022/06/16 00:38:57;;;;;;;1.03;0.97;;;;;;;;;;5163991;27;20241;-57
2022/06/16 00:41:44;;;;;;;0.80;0.80;;;;;;;;;;5158476;27;20202;-57
2022/06/16 00:44:42;;;;;;;1.40;0.93;;;;;;;;;;5158656;27;20216;-58
2022/06/16 00:47:31;;;;;;;0.70;0.70;;;;;;;;;;5156853;27;20196;-57
2022/06/16 00:50:18;;;;;;;0.87;0.60;;;;;;;;;;5159167;27;20209;-57
2022/06/16 00:53:05;;;;;;;1.07;0.90;;;;;;;;;;5162541;27;20760;-56
2022/06/16 00:55:53;;;;;;;0.90;0.90;;;;;;;;;;5157261;27;20228;-57
2022/06/16 00:58:45;;;;;;;0.90;0.90;;;;;;;;;;5155001;27;20249;-57
2022/06/16 01:01:34;;;;;;;1.23;1.07;;;;;;;;;;5154008;27;20808;-58
2022/06/16 01:07:40;;;;;;;1.07;0.80;;;;;;;;;;5155588;27;20303;-56
2022/06/16 01:10:37;;;;;;;1.00;0.90;;;;;;;;;;5157214;27;20200;-56
2022/06/16 01:13:43;;;;;;;1.17;0.93;;;;;;;;;;5157136;27;20338;-57
2022/06/16 01:16:38;;;;;;;0.80;0.80;;;;;;;;;;5159597;27;20291;-59
2022/06/16 01:19:45;;;;;;;0.80;0.73;;;;;;;;;;5155947;27;20495;-57
2022/06/16 01:22:47;;;;;;;0.93;0.93;;;;;;;;;;5156219;27;20219;-58
2022/06/16 01:25:44;;;;;;;0.97;0.87;;;;;;;;;;5156171;27;20408;-57
2022/06/16 01:28:35;;;;;;;0.80;0.80;;;;;;;;;;5156337;27;20642;-57
2022/06/16 01:31:28;;;;;;;1.43;1.33;;;;;;;;;;5160162;27;20204;-57
2022/06/16 01:34:24;;;;;;;0.80;0.80;;;;;;;;;;5155739;27;20208;-58
2022/06/16 01:37:16;;;;;;;0.90;0.90;;;;;;;;;;5160597;27;20284;-57
2022/06/16 01:40:09;;;;;;;1.00;0.90;;;;;;;;;;5156485;27;20200;-58
2022/06/16 01:43:09;;;;;;;0.70;0.60;;;;;;;;;;5157869;27;20223;-57
2022/06/16 01:46:02;;;;;;;0.93;0.90;;;;;;;;;;5158811;27;20297;-65
2022/06/16 01:48:54;;;;;;;1.10;1.00;;;;;;;;;;5157961;27;20358;-57
2022/06/16 01:51:44;;;;;;;0.80;0.80;;;;;;;;;;5155141;27;20208;-57
2022/06/16 01:54:37;;;;;;;1.00;1.00;;;;;;;;;;5154222;27;20636;-58
2022/06/16 01:57:29;;;;;;;0.70;0.70;;;;;;;;;;5158243;27;20204;-57
2022/06/16 02:00:19;;;;;;;0.93;0.93;;;;;;;;;;5156436;27;20227;-57
2022/06/16 02:03:09;;;;;;;0.90;0.90;;;;;;;;;;5154385;27;20213;-57
2022/06/16 02:06:02;;;;;;;1.03;0.70;;;;;;;;;;5155959;27;20285;-57
2022/06/16 02:08:52;;;;;;;0.70;0.70;;;;;;;;;;5155290;27;20208;-57
2022/06/16 02:11:42;;;;;;;0.90;0.57;;;;;;;;;;5151595;27;20201;-57
2022/06/16 02:14:33;;;;;;;0.90;0.90;;;;;;;;;;5163752;27;20201;-57
2022/06/16 02:17:20;;;;;;;1.13;0.87;;;;;;;;;;5167318;27;20697;-57
2022/06/16 02:20:08;;;;;;;1.30;0.70;;;;;;;;;;5157502;27;20200;-57
2022/06/16 02:22:57;;;;;;;1.17;0.90;;;;;;;;;;5158427;27;20255;-58
2022/06/16 02:25:46;;;;;;;0.90;0.90;;;;;;;;;;5165576;27;20625;-57
2022/06/16 02:28:42;;;;;;;0.70;0.70;;;;;;;;;;5161919;27;20199;-57
2022/06/16 02:31:43;;;;;;;0.80;0.80;;;;;;;;;;5158663;27;20208;-57
2022/06/16 02:34:41;;;;;;;0.83;0.80;;;;;;;;;;5158555;27;20714;-57
2022/06/16 02:37:43;;;;;;;0.80;0.80;;;;;;;;;;5158707;27;20223;-57
2022/06/16 02:40:44;;;;;;;0.77;0.70;;;;;;;;;;5163180;27;20211;-57
2022/06/16 02:43:46;;;;;;;1.30;1.20;;;;;;;;;;5157784;27;20228;-57
2022/06/16 02:46:44;;;;;;;0.80;0.80;;;;;;;;;;5157767;27;20211;-58
2022/06/16 02:49:40;;;;;;;1.13;0.80;;;;;;;;;;5161862;27;20241;-58
2022/06/16 02:52:32;;;;;;;1.57;0.70;;;;;;;;;;5166369;27;20200;-57
2022/06/16 02:55:26;;;;;;;0.60;0.60;;;;;;;;;;5161389;27;20209;-57
2022/06/16 02:58:18;;;;;;;0.83;0.70;;;;;;;;;;5159092;27;20195;-57
2022/06/16 03:01:07;;;;;;;0.60;0.60;;;;;;;;;;5164254;27;20782;-57
2022/06/16 03:04:06;;;;;;;0.70;0.70;;;;;;;;;;5166631;27;20213;-57
2022/06/16 03:06:55;;;;;;;1.57;0.80;;;;;;;;;;5158139;27;20706;-57
2022/06/16 03:09:42;;;;;;;1.20;1.00;;;;;;;;;;5166537;27;20253;-57
2022/06/16 03:12:29;;;;;;;1.07;0.90;;;;;;;;;;5160410;27;20201;-57
2022/06/16 03:15:18;;;;;;;0.63;0.63;;;;;;;;;;5160816;27;20198;-57
2022/06/16 03:18:05;;;;;;;0.80;0.80;;;;;;;;;;5159811;27;20212;-57
2022/06/16 03:20:53;;;;;;;0.70;0.70;;;;;;;;;;5160238;27;20205;-58
2022/06/16 03:23:40;;;;;;;0.60;0.60;;;;;;;;;;5155726;27;20224;-57
2022/06/16 03:26:27;;;;;;;1.03;0.70;;;;;;;;;;5160768;27;20236;-58
2022/06/16 03:29:15;;;;;;;1.73;0.77;;;;;;;;;;5155701;27;20717;-58
2022/06/16 03:32:04;;;;;;;0.77;0.77;;;;;;;;;;5160588;27;20616;-57
2022/06/16 03:34:50;;;;;;;0.60;0.60;;;;;;;;;;5160002;27;20337;-57
2022/06/16 03:37:40;;;;;;;0.67;0.67;;;;;;;;;;5160195;27;20208;-57
2022/06/16 03:40:27;;;;;;;0.63;0.63;;;;;;;;;;5163748;27;20204;-57
2022/06/16 03:43:14;;;;;;;2.57;0.90;;;;;;;;;;5165789;27;20325;-57
2022/06/16 03:46:01;;;;;;;0.80;0.80;;;;;;;;;;5163316;27;20224;-57
2022/06/16 03:48:50;;;;;;;0.63;0.63;;;;;;;;;;5158092;27;20209;-57
2022/06/16 03:51:36;;;;;;;0.60;0.60;;;;;;;;;;5157726;27;20289;-57
2022/06/16 03:54:23;;;;;;;0.67;0.67;;;;;;;;;;5155136;27;20200;-57
2022/06/16 03:57:10;;;;;;;0.80;0.80;;;;;;;;;;5158002;27;20254;-57
2022/06/16 03:59:57;;;;;;;0.90;0.90;;;;;;;;;;5165374;27;20202;-57
2022/06/16 04:02:44;;;;;;;0.87;0.80;;;;;;;;;;5156909;27;20215;-57
2022/06/16 04:05:33;;;;;;;0.63;0.63;;;;;;;;;;5161755;27;20735;-58
2022/06/16 04:08:20;;;;;;;1.43;1.00;;;;;;;;;;5159095;27;20254;-57
2022/06/16 04:14:11;;;;;;;0.90;0.80;;;;;;;;;;5161485;27;20212;-57
2022/06/16 04:16:58;;;;;;;1.07;0.80;;;;;;;;;;5165457;27;20687;-58
2022/06/16 04:22:49;;;;;;;0.50;0.50;;;;;;;;;;5161047;27;20208;-57
2022/06/16 04:25:37;;;;;;;1.00;0.90;;;;;;;;;;5159815;27;20578;-57
2022/06/16 04:28:24;;;;;;;0.80;0.80;;;;;;;;;;5161545;27;20565;-58
2022/06/16 04:31:11;;;;;;;0.70;0.70;;;;;;;;;;5165180;27;20642;-57
2022/06/16 04:33:58;;;;;;;1.07;0.97;;;;;;;;;;5158865;27;20575;-60
2022/06/16 04:36:44;;;;;;;0.60;0.60;;;;;;;;;;5152832;27;21439;-58
2022/06/16 04:39:33;;;;;;;0.70;0.70;;;;;;;;;;5158372;27;20204;-57
2022/06/16 04:42:20;;;;;;;0.70;0.70;;;;;;;;;;5159674;27;20269;-57
2022/06/16 04:45:10;;;;;;;0.60;0.60;;;;;;;;;;5160013;27;20270;-58
2022/06/16 04:47:57;;;;;;;0.77;0.77;;;;;;;;;;5162465;27;20661;-57
2022/06/16 04:50:44;;;;;;;1.00;0.60;;;;;;;;;;5161044;27;20194;-57
2022/06/16 04:53:32;;;;;;;0.70;0.70;;;;;;;;;;5156882;27;20567;-57
2022/06/16 04:56:20;;;;;;;1.43;0.90;;;;;;;;;;5155016;27;20312;-57
2022/06/16 04:59:07;;;;;;;0.83;0.83;;;;;;;;;;5157747;27;20202;-57
2022/06/16 05:01:54;;;;;;;0.87;0.87;;;;;;;;;;5165399;27;20227;-57
2022/06/16 05:04:42;;;;;;;0.73;0.73;;;;;;;;;;5155689;27;20221;-57
2022/06/16 05:07:29;;;;;;;0.90;0.87;;;;;;;;;;5162668;27;20201;-57
2022/06/16 05:10:16;;;;;;;0.60;0.60;;;;;;;;;;5156200;27;20314;-57
2022/06/16 05:13:05;;;;;;;0.90;0.90;;;;;;;;;;5158746;27;20193;-58
2022/06/16 05:15:54;;;;;;;0.60;0.60;;;;;;;;;;5162005;27;20719;-57
2022/06/16 05:18:41;;;;;;;0.93;0.83;;;;;;;;;;5159745;27;20221;-57
2022/06/16 05:21:28;;;;;;;0.70;0.70;;;;;;;;;;5155962;27;20607;-57
2022/06/16 05:24:15;;;;;;;1.13;1.03;;;;;;;;;;5158752;27;20217;-57
2022/06/16 05:27:04;;;;;;;1.53;0.70;;;;;;;;;;5158249;27;20217;-56
2022/06/16 05:29:52;;;;;;;0.70;0.70;;;;;;;;;;5152661;27;20216;-57
2022/06/16 05:32:39;;;;;;;0.67;0.63;;;;;;;;;;5160065;27;20291;-58
2022/06/16 05:35:26;;;;;;;1.27;1.13;;;;;;;;;;5160090;27;20352;-57
2022/06/16 05:38:13;;;;;;;0.80;0.80;;;;;;;;;;5158886;27;20216;-58
2022/06/16 05:41:02;;;;;;;1.03;1.03;;;;;;;;;;5163503;27;20201;-62
2022/06/16 05:43:49;;;;;;;1.00;0.90;;;;;;;;;;5157650;27;20248;-57
2022/06/16 05:46:40;;;;;;;0.80;0.67;;;;;;;;;;5159786;27;20264;-57
2022/06/16 05:49:27;;;;;;;0.90;0.90;;;;;;;;;;5153198;27;20676;-57
2022/06/16 05:52:16;;;;;;;0.63;0.63;;;;;;;;;;5159016;27;20209;-56
2022/06/16 05:55:03;;;;;;;0.70;0.70;;;;;;;;;;5161307;27;20201;-57
2022/06/16 05:57:50;;;;;;;0.77;0.70;;;;;;;;;;5160220;27;20226;-57
2022/06/16 06:00:37;;;;;;;1.47;0.90;;;;;;;;;;5164863;27;20775;-57
2022/06/16 06:03:25;;;;;;;0.80;0.80;;;;;;;;;;5157265;27;20662;-57
2022/06/16 06:06:12;;;;;;;1.03;1.00;;;;;;;;;;5159699;27;20209;-57
2022/06/16 06:18:36;;;;;;;1.27;1.17;;;;;;;;;;5159128;27;20206;-57
2022/06/16 06:24:26;;;;;;;0.80;0.80;;;;;;;;;;5159616;27;20657;-57
2022/06/16 06:27:17;;;;;;;0.90;0.83;;;;;;;;;;5153903;27;20260;-57
2022/06/16 06:30:07;;;;;;;1.10;1.10;;;;;;;;;;5158959;27;20283;-58
2022/06/16 06:32:54;;;;;;;1.53;1.20;;;;;;;;;;5158530;27;20202;-57
2022/06/16 06:35:42;;;;;;;1.07;1.07;;;;;;;;;;5153749;27;20227;-57
2022/06/16 06:38:29;;;;;;;1.73;1.40;;;;;;;;;;5160503;27;20293;-57
2022/06/16 06:41:17;;;;;;;1.60;1.10;;;;;;;;;;5152205;27;20267;-57
2022/06/16 06:44:04;;;;;;;1.97;1.20;;;;;;;;;;5155710;27;20209;-58
2022/06/16 06:46:51;;;;;;;1.73;1.40;;;;;;;;;;5154577;27;20218;-57
2022/06/16 06:49:38;;;;;;;1.60;1.17;;;;;;;;;;5156290;27;20641;-57
2022/06/16 06:52:27;;;;;;;1.60;1.50;;;;;;;;;;5155338;27;20208;-57
2022/06/16 06:55:14;;;;;;;1.13;1.03;;;;;;;;;;5151883;27;20207;-58
2022/06/16 06:58:01;;;;;;;1.10;1.10;;;;;;;;;;5156169;27;20203;-57
2022/06/16 07:00:53;;;;;;;1.43;1.27;;;;;;;;;;5163819;27;20222;-57
2022/06/16 07:03:40;;;;;;;1.53;1.30;;;;;;;;;;5159728;27;20207;-57
2022/06/16 07:06:27;;;;;;;1.80;1.13;;;;;;;;;;5156651;27;20280;-58
2022/06/16 07:09:17;;;;;;;1.13;1.07;;;;;;;;;;5157612;27;20866;-58
2022/06/16 07:12:13;;;;;;;1.40;1.17;;;;;;;;;;5163361;27;20205;-57
2022/06/16 07:15:00;;;;;;;1.53;1.30;;;;;;;;;;5160167;27;20569;-59
2022/06/16 07:17:47;;;;;;;1.03;1.03;;;;;;;;;;5159736;27;20206;-57
2022/06/16 07:20:34;;;;;;;1.30;1.20;;;;;;;;;;5159638;27;20569;-61
2022/06/16 07:23:21;;;;;;;1.57;1.13;;;;;;;;;;5159499;27;20205;-58
2022/06/16 07:26:11;;;;;;;1.33;1.23;;;;;;;;;;5160151;27;20192;-57
2022/06/16 07:29:00;;;;;;;1.10;1.00;;;;;;;;;;5161687;27;20212;-57
2022/06/16 07:31:47;;;;;;;1.43;1.20;;;;;;;;;;5158625;27;20203;-57
2022/06/16 07:34:34;;;;;;;1.10;1.00;;;;;;;;;;5156125;27;20226;-58
2022/06/16 07:37:21;;;;;;;1.33;1.03;;;;;;;;;;5159512;27;20273;-57
2022/06/16 07:40:10;;;;;;;1.40;0.90;;;;;;;;;;5162455;27;20204;-57
2022/06/16 07:42:58;;;;;;;1.10;1.00;;;;;;;;;;5161960;27;20211;-57
2022/06/16 07:45:45;;;;;;;1.30;1.10;;;;;;;;;;5158743;27;20695;-58
2022/06/16 07:48:32;;;;;;;1.40;1.10;;;;;;;;;;5159615;27;20582;-57
2022/06/16 07:51:19;;;;;;;2.80;1.40;;;;;;;;;;5155439;27;20213;-58
2022/06/16 07:54:07;;;;;;;1.63;1.23;;;;;;;;;;5162518;27;20266;-57
2022/06/16 07:56:54;;;;;;;1.10;1.00;;;;;;;;;;5158390;27;20212;-57
2022/06/16 07:59:42;;;;;;;1.30;0.97;;;;;;;;;;5164374;27;20661;-57
2022/06/16 08:02:29;;;;;;;1.53;1.27;;;;;;;;;;5157264;27;20230;-57
2022/06/16 08:05:17;;;;;;;1.50;1.10;;;;;;;;;;5157628;27;20214;-58
2022/06/16 08:08:04;;;;;;;2.03;1.20;;;;;;;;;;5153893;27;20204;-56
2022/06/16 08:10:51;;;;;;;1.20;1.00;;;;;;;;;;5156862;27;20203;-57
2022/06/16 08:13:38;;;;;;;1.30;1.20;;;;;;;;;;5159221;27;20211;-57
2022/06/16 08:16:30;;;;;;;1.30;1.20;;;;;;;;;;5158011;27;20208;-58
2022/06/16 08:19:17;;;;;;;0.70;0.70;;;;;;;;;;5153939;27;20231;-58
2022/06/16 08:22:05;;;;;;;1.00;1.00;;;;;;;;;;5159130;27;20651;-58
2022/06/16 08:24:52;;;;;;;0.85;0.85;;;;;;;;;;5156419;27;20225;-58
2022/06/16 08:27:41;;;;;;;1.13;1.00;;;;;;;;;;5158013;27;20193;-58
2022/06/16 08:30:28;;;;;;;1.55;1.20;;;;;;;;;;5156194;27;20208;-58
2022/06/16 08:33:18;;;;;;;1.20;1.10;;;;;;;;;;5158302;27;20207;-60
2022/06/16 08:36:06;;;;;;;0.90;0.90;;;;;;;;;;5161880;27;20241;-58
2022/06/16 08:38:53;;;;;;;1.38;1.10;;;;;;;;;;5155296;27;20294;-58
2022/06/16 08:41:46;;;;;;;1.25;1.15;;;;;;;;;;5156983;27;20196;-57
2022/06/16 08:44:41;;;;;;;1.33;1.00;;;;;;;;;;5152841;27;20317;-57
2022/06/16 08:47:37;;;;;;;1.30;1.00;;;;;;;;;;5154876;27;20291;-58
2022/06/16 08:50:32;;;;;;;1.52;1.25;;;;;;;;;;5159851;27;20634;-57
2022/06/16 08:53:36;;;;;;;1.45;1.10;;;;;;;;;;5156099;27;20556;-58
2022/06/16 08:56:28;;;;;;;1.45;1.08;;;;;;;;;;5161893;27;20286;-58
2022/06/16 08:59:26;;;;;;;1.10;1.00;;;;;;;;;;5156940;27;20944;-57
2022/06/16 09:02:19;;;;;;;1.10;1.00;;;;;;;;;;5163352;27;20261;-58
2022/06/16 09:05:17;;;;;;;1.23;1.10;;;;;;;;;;5161099;27;20216;-57
2022/06/16 09:08:19;;;;;;;1.52;1.25;;;;;;;;;;5157217;27;20572;-57
2022/06/16 09:11:14;;;;;;;1.27;1.00;;;;;;;;;;5157573;27;20231;-58
2022/06/16 09:14:21;;;;;;;1.35;1.05;;;;;;;;;;5158654;27;20258;-57
2022/06/16 09:17:16;;;;;;;0.90;0.90;;;;;;;;;;5158425;27;20220;-57
2022/06/16 09:20:13;;;;;;;1.15;0.88;;;;;;;;;;5157326;27;20209;-57
2022/06/16 09:23:17;;;;;;;1.63;1.00;;;;;;;;;;5157019;27;20208;-67
2022/06/16 09:26:16;;;;;;;0.90;0.90;;;;;;;;;;5158184;27;20645;-58
2022/06/16 09:29:08;;;;;;;1.20;1.10;;;;;;;;;;5158671;27;20201;-57
2022/06/16 09:32:00;;;;;;;1.30;1.20;;;;;;;;;;5155379;27;20207;-58
2022/06/16 09:34:52;;;;;;;1.20;1.10;;;;;;;;;;5157594;27;20284;-57
2022/06/16 09:37:47;;;;;;;1.33;1.00;;;;;;;;;;5155317;27;20291;-58
2022/06/16 09:40:40;;;;;;;1.63;1.45;;;;;;;;;;5156909;27;20235;-57
2022/06/16 09:43:33;;;;;;;0.80;0.77;;;;;;;;;;5163739;27;20284;-58
2022/06/16 09:46:24;;;;;;;1.17;1.15;;;;;;;;;;5163324;27;20312;-58
2022/06/16 09:49:15;;;;;;;1.08;1.08;;;;;;;;;;5157497;27;20333;-58
2022/06/16 09:52:07;;;;;;;1.23;1.17;;;;;;;;;;5154666;27;20306;-57
2022/06/16 09:54:59;;;;;;;1.35;1.08;;;;;;;;;;5155731;27;20240;-57
2022/06/16 09:57:53;;;;;;;1.58;0.82;;;;;;;;;;5161008;27;20338;-57
2022/06/16 10:00:41;;;;;;;0.95;0.85;;;;;;;;;;5161332;27;20686;-57
2022/06/16 10:03:34;;;;;;;0.90;0.90;;;;;;;;;;5162162;27;20657;-57
2022/06/16 10:06:31;;;;;;;2.38;1.10;;;;;;;;;;5160508;27;20219;-57
2022/06/16 10:09:24;;;;;;;1.00;0.90;;;;;;;;;;5154949;27;20310;-57
2022/06/16 10:12:19;;;;;;;1.50;1.13;;;;;;;;;;5153724;27;20512;-59
2022/06/16 10:15:14;;;;;;;0.98;0.90;;;;;;;;;;5153734;27;20211;-57
2022/06/16 10:18:01;;;;;;;1.40;1.30;;;;;;;;;;5152766;27;20196;-58
2022/06/16 10:20:48;;;;;;;1.08;0.98;;;;;;;;;;5153625;27;20196;-57
2022/06/16 10:23:39;;;;;;;0.68;0.68;;;;;;;;;;5156925;27;20199;-57
2022/06/16 10:26:26;;;;;;;1.30;1.05;;;;;;;;;;5152279;27;20231;-57
2022/06/16 10:29:22;;;;;;;1.13;0.90;;;;;;;;;;5152696;27;20660;-58
2022/06/16 10:32:18;;;;;;;1.23;1.00;;;;;;;;;;5154963;27;20218;-57
2022/06/16 10:35:06;;;;;;;0.98;0.77;;;;;;;;;;5158015;27;20708;-57
2022/06/16 10:37:54;;;;;;;1.17;1.02;;;;;;;;;;5160622;27;20208;-57
2022/06/16 10:40:43;;;;;;;1.20;1.10;;;;;;;;;;5160460;27;20201;-58
2022/06/16 10:43:36;;;;;;;1.27;1.17;;;;;;;;;;5163132;27;20706;-57
2022/06/16 10:46:30;;;;;;;0.95;0.95;;;;;;;;;;5163354;27;20251;-57
2022/06/16 10:49:21;;;;;;;0.82;0.75;;;;;;;;;;5167635;27;20290;-58
2022/06/16 10:52:14;;;;;;;1.20;1.10;;;;;;;;;;5160111;27;20204;-58
2022/06/16 10:55:16;;;;;;;1.15;1.05;;;;;;;;;;5163596;27;20298;-57
2022/06/16 10:58:08;;;;;;;1.00;1.00;;;;;;;;;;5159042;27;20196;-57
2022/06/16 11:01:03;;;;;;;1.10;0.90;;;;;;;;;;5158886;27;20222;-57
2022/06/16 11:03:52;;;;;;;1.05;0.95;;;;;;;;;;5159114;27;20213;-57
2022/06/16 11:06:47;;;;;;;0.90;0.90;;;;;;;;;;5159901;27;20236;-57
2022/06/16 11:09:35;;;;;;;1.25;0.80;;;;;;;;;;5156073;27;21150;-58
2022/06/16 11:12:24;;;;;;;0.70;0.70;;;;;;;;;;5158949;27;20216;-58
2022/06/16 11:15:21;;;;;;;0.93;0.93;;;;;;;;;;5164169;27;20284;-59
2022/06/16 11:18:13;;;;;;;1.05;1.00;;;;;;;;;;5158173;27;20200;-58
2022/06/16 11:21:12;;;;;;;0.90;0.90;;;;;;;;;;5163100;27;20211;-59
2022/06/16 11:24:02;;;;;;;1.08;0.80;;;;;;;;;;5158603;27;20388;-58
2022/06/16 11:26:54;;;;;;;0.85;0.85;;;;;;;;;;5154799;27;20751;-58
2022/06/16 11:29:41;;;;;;;0.73;0.73;;;;;;;;;;5162236;27;20237;-58
2022/06/16 11:32:35;;;;;;;0.70;0.70;;;;;;;;;;5155791;27;20325;-59
2022/06/16 11:35:28;;;;;;;1.15;0.98;;;;;;;;;;5155663;27;20703;-58
2022/06/16 11:38:20;;;;;;;1.15;0.82;;;;;;;;;;5158858;27;20200;-58
2022/06/16 11:41:13;;;;;;;0.73;0.73;;;;;;;;;;5166464;27;20652;-58
2022/06/16 11:44:12;;;;;;;0.88;0.88;;;;;;;;;;5162219;27;20659;-58
2022/06/16 11:47:08;;;;;;;1.08;1.00;;;;;;;;;;5159852;27;20311;-58
2022/06/16 11:50:02;;;;;;;0.75;0.75;;;;;;;;;;5162431;27;20207;-58
2022/06/16 11:53:01;;;;;;;0.98;0.95;;;;;;;;;;5159586;27;20248;-58
2022/06/16 11:55:52;;;;;;;1.25;0.70;;;;;;;;;;5161284;27;20196;-58
2022/06/16 11:58:53;;;;;;;0.80;0.80;;;;;;;;;;5159655;27;20239;-58
2022/06/16 12:01:46;;;;;;;0.75;0.75;;;;;;;;;;5155812;27;20231;-57
2022/06/16 12:04:51;;;;;;;1.02;0.93;;;;;;;;;;5162622;27;20577;-58
2022/06/16 12:08:14;;;;;;;0.70;0.70;;;;;;;;;;5154833;27;20575;-60
2022/06/16 12:11:07;;;;;;;0.90;0.90;;;;;;;;;;5162891;27;20216;-58
2022/06/16 12:14:05;;;;;;;0.82;0.80;;;;;;;;;;5154680;27;20692;-57
2022/06/16 12:17:00;;;;;;;0.60;0.60;;;;;;;;;;5159606;27;20197;-58
2022/06/16 12:19:55;;;;;;;1.27;0.85;;;;;;;;;;5156137;27;20199;-58
2022/06/16 12:22:46;;;;;;;0.98;0.70;;;;;;;;;;5158038;27;20673;-58
2022/06/16 12:25:40;;;;;;;0.95;0.90;;;;;;;;;;5158694;27;20228;-58
2022/06/16 12:28:31;;;;;;;0.98;0.98;;;;;;;;;;5154484;27;20212;-61
2022/06/16 12:31:25;;;;;;;0.75;0.75;;;;;;;;;;5157746;27;20215;-58
2022/06/16 12:34:16;;;;;;;0.73;0.73;;;;;;;;;;5153389;27;20202;-59
2022/06/16 12:37:08;;;;;;;0.50;0.50;;;;;;;;;;5125560;27;20204;-57
2022/06/16 12:39:59;;;;;;;0.82;0.82;;;;;;;;;;5119991;27;20689;-58
2022/06/16 12:42:53;;;;;;;0.85;0.82;;;;;;;;;;5118526;27;20669;-58
2022/06/16 12:45:44;;;;;;;0.68;0.68;;;;;;;;;;5122620;27;20216;-59
2022/06/16 12:48:40;;;;;;;0.93;0.82;;;;;;;;;;5116142;27;20204;-58
2022/06/16 12:51:34;;;;;;;0.82;0.70;;;;;;;;;;5117797;27;20209;-58
2022/06/16 12:54:27;;;;;;;0.77;0.77;;;;;;;;;;5119705;27;20695;-57
2022/06/16 12:57:17;;;;;;;1.35;0.73;;;;;;;;;;5120361;27;20885;-58
2022/06/16 13:00:10;;;;;;;1.10;1.00;;;;;;;;;;5121601;27;20277;-58
2022/06/16 13:03:02;;;;;;;0.85;0.85;;;;;;;;;;5121147;27;20201;-59
2022/06/16 13:05:51;;;;;;;1.00;0.80;;;;;;;;;;5116456;27;20280;-58
2022/06/16 13:08:42;;;;;;;0.90;0.90;;;;;;;;;;5122620;27;20216;-57
2022/06/16 13:11:33;;;;;;;0.70;0.70;;;;;;;;;;5123191;27;20189;-57
2022/06/16 13:14:26;;;;;;;0.85;0.85;;;;;;;;;;5117370;27;20243;-58
2022/06/16 13:17:14;;;;;;;0.80;0.80;;;;;;;;;;5123030;27;20201;-58
2022/06/16 13:20:05;;;;;;;0.60;0.60;;;;;;;;;;5119983;27;20383;-58
2022/06/16 13:22:58;;;;;;;1.10;1.00;;;;;;;;;;5124351;27;20220;-57
2022/06/16 13:25:51;;;;;;;1.52;1.00;;;;;;;;;;5118851;27;20236;-58
2022/06/16 13:28:40;;;;;;;1.42;0.95;;;;;;;;;;5124053;27;20210;-58
2022/06/16 13:31:48;;;;;;;0.60;0.60;;;;;;;;;;5121007;27;20253;-59
2022/06/16 13:34:54;;;;;;;0.80;0.80;;;;;;;;;;5123763;27;20240;-59
2022/06/16 13:37:46;;;;;;;0.77;0.73;;;;;;;;;;5161289;27;20211;-58
2022/06/16 13:40:36;;;;;;;0.80;0.80;;;;;;;;;;5155319;27;20212;-58
2022/06/16 13:43:24;;;;;;;0.60;0.60;;;;;;;;;;5156604;27;20207;-58
2022/06/16 13:46:11;;;;;;;0.70;0.70;;;;;;;;;;5152207;27;20236;-58
2022/06/16 13:49:06;;;;;;;1.10;0.80;;;;;;;;;;5159776;27;20200;-58
2022/06/16 13:51:55;;;;;;;0.70;0.70;;;;;;;;;;5164074;27;20312;-58
2022/06/16 13:54:43;;;;;;;1.13;0.80;;;;;;;;;;5153543;27;20216;-58
2022/06/16 13:57:33;;;;;;;0.70;0.70;;;;;;;;;;5161428;27;20554;-58
2022/06/16 14:00:32;;;;;;;0.70;0.70;;;;;;;;;;5160298;27;20209;-58
2022/06/16 14:03:23;;;;;;;0.63;0.63;;;;;;;;;;5159627;27;20234;-60
2022/06/16 14:06:13;;;;;;;0.70;0.70;;;;;;;;;;5153565;27;20261;-58
2022/06/16 14:09:08;;;;;;;1.10;0.90;;;;;;;;;;5160996;27;20592;-58
2022/06/16 14:12:12;;;;;;;0.73;0.73;;;;;;;;;;5162272;27;20327;-58
2022/06/16 14:15:11;;;;;;;0.80;0.80;;;;;;;;;;5162816;27;20662;-58
2022/06/16 14:18:12;;;;;;;0.80;0.80;;;;;;;;;;5165720;27;20247;-59
2022/06/16 14:21:04;;;;;;;0.88;0.88;;;;;;;;;;5160382;27;20206;-58
2022/06/16 14:23:58;;;;;;;0.63;0.63;;;;;;;;;;5161314;27;20203;-58
2022/06/16 14:26:46;;;;;;;0.70;0.70;;;;;;;;;;5165087;27;20220;-57
2022/06/16 14:29:34;;;;;;;1.05;0.70;;;;;;;;;;5160606;27;20230;-58
2022/06/16 14:32:31;;;;;;;0.80;0.80;;;;;;;;;;5159573;27;20219;-58
2022/06/16 14:35:22;;;;;;;2.08;0.80;;;;;;;;;;5164053;27;20234;-58
2022/06/16 14:38:14;;;;;;;0.70;0.70;;;;;;;;;;5157423;27;20199;-57
2022/06/16 14:41:04;;;;;;;1.75;0.88;;;;;;;;;;5163548;27;20200;-59
2022/06/16 14:44:03;;;;;;;2.20;0.63;;;;;;;;;;5157256;27;22131;-58
2022/06/16 14:46:56;;;;;;;0.60;0.60;;;;;;;;;;5160212;27;20650;-58
2022/06/16 14:49:49;;;;;;;1.17;0.70;;;;;;;;;;5159306;27;20764;-58
2022/06/16 14:52:40;;;;;;;0.77;0.68;;;;;;;;;;5155087;27;20208;-57
2022/06/16 14:55:31;;;;;;;0.90;0.90;;;;;;;;;;5159037;27;20267;-58
2022/06/16 14:58:19;;;;;;;0.80;0.80;;;;;;;;;;5155914;27;20600;-59
2022/06/16 15:01:08;;;;;;;0.60;0.60;;;;;;;;;;5163057;27;20221;-58
2022/06/16 15:03:59;;;;;;;0.98;0.82;;;;;;;;;;5165745;27;20264;-58
2022/06/16 15:06:50;;;;;;;0.83;0.80;;;;;;;;;;5161103;27;20778;-58
2022/06/16 15:09:40;;;;;;;0.80;0.80;;;;;;;;;;5159836;27;20286;-58
2022/06/16 15:12:29;;;;;;;0.60;0.60;;;;;;;;;;5162094;27;20239;-58
2022/06/16 15:15:20;;;;;;;0.60;0.60;;;;;;;;;;5158888;27;20199;-59
2022/06/16 15:18:13;;;;;;;0.80;0.80;;;;;;;;;;5157307;27;20547;-58
2022/06/16 15:21:03;;;;;;;0.65;0.65;;;;;;;;;;5157475;27;20217;-57
2022/06/16 15:23:53;;;;;;;0.70;0.70;;;;;;;;;;5159172;27;20207;-58
2022/06/16 15:26:40;;;;;;;0.77;0.77;;;;;;;;;;5161549;27;20231;-58
2022/06/16 15:29:31;;;;;;;0.70;0.70;;;;;;;;;;5160911;27;20635;-59
2022/06/16 15:38:30;;;;;;;3.63;0.90;;;;;;;;;;5162496;27;20250;-58
2022/06/16 15:41:34;;;;;;;0.80;0.70;;;;;;;;;;5157943;27;20213;-58
2022/06/16 15:44:24;;;;;;;0.60;0.60;;;;;;;;;;5160482;27;20567;-60
2022/06/16 15:47:17;;;;;;;0.90;0.90;;;;;;;;;;5160555;27;20687;-58
2022/06/16 15:50:12;;;;;;;0.73;0.73;;;;;;;;;;5154708;27;20250;-59
2022/06/16 15:53:01;;;;;;;0.50;0.50;;;;;;;;;;5158993;27;20660;-59
2022/06/16 15:55:49;;;;;;;0.80;0.80;;;;;;;;;;5157454;27;20572;-59
2022/06/16 15:58:38;;;;;;;0.57;0.57;;;;;;;;;;5158232;27;20722;-58
2022/06/16 16:01:25;;;;;;;0.67;0.60;;;;;;;;;;5159877;27;20234;-58
2022/06/16 16:04:14;;;;;;;0.87;0.70;;;;;;;;;;5163310;27;20332;-59
2022/06/16 16:07:01;;;;;;;0.70;0.70;;;;;;;;;;5158833;27;20224;-58
2022/06/16 16:09:51;;;;;;;0.60;0.60;;;;;;;;;;5162368;27;20289;-59
2022/06/16 16:12:38;;;;;;;0.57;0.57;;;;;;;;;;5160367;27;20202;-58
2022/06/16 16:15:27;;;;;;;0.63;0.60;;;;;;;;;;5159059;27;20250;-58
2022/06/16 16:18:20;;;;;;;0.80;0.63;;;;;;;;;;5158645;27;20207;-58
2022/06/16 16:21:10;;;;;;;1.17;1.00;;;;;;;;;;5159719;27;20222;-58
2022/06/16 16:23:58;;;;;;;0.70;0.70;;;;;;;;;;5161335;27;20206;-58
2022/06/16 16:26:53;;;;;;;0.93;0.67;;;;;;;;;;5154952;27;20225;-58
2022/06/16 16:29:48;;;;;;;0.70;0.70;;;;;;;;;;5158079;27;20204;-58
2022/06/16 16:32:37;;;;;;;0.70;0.70;;;;;;;;;;5157787;27;20204;-58
2022/06/16 16:35:24;;;;;;;0.97;0.70;;;;;;;;;;5157819;27;20262;-58
2022/06/16 16:38:19;;;;;;;0.53;0.50;;;;;;;;;;5155775;27;20202;-59
2022/06/16 16:44:38;;;;;;;1.07;0.67;;;;;;;;;;5152012;27;20283;-59
2022/06/16 16:47:25;;;;;;;0.77;0.60;;;;;;;;;;5153688;27;20245;-58
2022/06/16 16:50:21;;;;;;;1.00;0.60;;;;;;;;;;5157689;27;20252;-58
2022/06/16 16:53:11;;;;;;;0.77;0.73;;;;;;;;;;5160113;27;20211;-59
2022/06/16 16:56:08;;;;;;;0.50;0.50;;;;;;;;;;5152933;27;20603;-58
2022/06/16 16:58:58;;;;;;;0.63;0.63;;;;;;;;;;5158984;27;20201;-58
2022/06/16 17:01:47;;;;;;;0.80;0.70;;;;;;;;;;5158702;27;20224;-59
2022/06/16 17:04:38;;;;;;;0.70;0.63;;;;;;;;;;5153617;27;20205;-59
2022/06/16 17:07:28;;;;;;;0.50;0.50;;;;;;;;;;5157586;27;20227;-59
2022/06/16 17:10:15;;;;;;;0.70;0.70;;;;;;;;;;5164842;27;20227;-57
2022/06/16 17:13:02;;;;;;;0.60;0.60;;;;;;;;;;5159045;27;20291;-58
2022/06/16 17:15:49;;;;;;;0.53;0.53;;;;;;;;;;5160677;27;20320;-58
2022/06/16 17:18:36;;;;;;;0.50;0.50;;;;;;;;;;5160117;27;20707;-58
2022/06/16 17:21:26;;;;;;;0.53;0.53;;;;;;;;;;5158914;27;20623;-58
2022/06/16 17:24:17;;;;;;;0.67;0.67;;;;;;;;;;5155944;27;20223;-58
2022/06/16 17:27:06;;;;;;;0.70;0.70;;;;;;;;;;5161565;27;20695;-58
2022/06/16 17:29:53;;;;;;;0.83;0.70;;;;;;;;;;5156094;27;20249;-59
2022/06/16 17:32:40;;;;;;;0.87;0.87;;;;;;;;;;5159309;27;20294;-59
2022/06/16 17:35:32;;;;;;;1.00;0.50;;;;;;;;;;5151522;27;20303;-59
2022/06/16 17:38:20;;;;;;;0.70;0.70;;;;;;;;;;5157665;27;20798;-58
2022/06/16 17:41:12;;;;;;;0.60;0.60;;;;;;;;;;5161718;27;20600;-58